Terminal Aerodrome Forecast
Issued by NWS

Home | Current Version | Previous Version | Text Only | Print | Product List | Glossary On
Versions: 1 2 3 4 5 6 7 8 9 10 11 12 13 14 15 16 17 18 19 20 21 22 23 24 25 26
000
FTUS46 KEKA 202320
TAFCEC
TAF
KCEC 202320Z 2100/2124 15015G25KT 6SM -SHRA BR FEW015 BKN025 OVC045
     FM210800 17020G30KT 4SM SHRA SCT015 BKN025 OVC040
     FM211800 19015G25KT P6SM -SHRA BKN025 OVC050=

USA.gov is the U.S. government's official web portal to all federal, state and local government web resources and services.